CheckWX is a tool to help pilots better visualize weather data.  It is not intended as a substitute for an official pre-flight weather briefing.

09:57:57 UTC

KFCM METAR
Flying Cloud Airport
Minneapolis, Minnesota, USA
Current

1 hour ago

KFCM 250853Z AUTO 16010KT 10SM OVC055 18/12 A3006 RMK AO2 SLP175 T01780122 58015
Observed
Aug-25 @ 08:53 UTC
Wind
  • 160° at 10 KTS
Visibility
10 SM
Flight Rules
VFR
Cloud Levels
  • Overcast at 5,500' AGL
Temperature
18°C / 64°F
Dewpoint
12°C / 54°F
Humidity
68%
Altimeter
30.06" Hg
Pressure
1017.92 hPa
Previous

2 hours ago

KFCM 250753Z AUTO 15010KT 10SM OVC055 18/12 A3007 RMK AO2 SLP179 T01780122
Observed
Aug-25 @ 07:53 UTC
Wind
  • 150° at 10 KTS
Visibility
10 SM
Flight Rules
VFR
Cloud Levels
  • Overcast at 5,500' AGL
Temperature
18°C / 64°F
Dewpoint
12°C / 54°F
Humidity
68%
Altimeter
30.07" Hg
Pressure
1018.32 hPa
Previous

3 hours ago

KFCM 250653Z AUTO 15009KT 10SM OVC055 18/12 A3009 RMK AO2 SLP187 T01780122
Observed
Aug-25 @ 06:53 UTC
Wind
  • 150° at 9 KTS
Visibility
10 SM
Flight Rules
VFR
Cloud Levels
  • Overcast at 5,500' AGL
Temperature
18°C / 64°F
Dewpoint
12°C / 54°F
Humidity
68%
Altimeter
30.09" Hg
Pressure
1018.92 hPa